QLK10D YORG-YSSY
Flight info
| Callsign | QLK10D |
|---|---|
| Flight time | 0h 33m |
| Altitude | 17000 |
| Route | VIRUR W801 AKMIR W113 ODALE |
| Aircraft | DH8D/M-SDE2E3FGRY/H |
Departure
| Time | 2026-04-16 12:57 |
|---|---|
| Airport | Orange Airport (YORG) |
Arrival
| Time | 2026-04-16 13:30 |
|---|---|
| Airport | Sydney Kingsford Smith International Airport (YSSY) |
| Time | Latitude | Longitude | Altitude | Speed | Heading |
|---|---|---|---|---|---|
| 2026-04-16 12:41 | -33.38121 | 149.12500 | 3109 ft | 0 kts | 254° |
| 2026-04-16 12:53 | -33.38120 | 149.12492 | 3109 ft | 1 kts | 301° |
| 2026-04-16 12:53 | -33.38112 | 149.12489 | 3109 ft | 3 kts | 5° |
| 2026-04-16 12:54 | -33.38083 | 149.12566 | 3110 ft | 13 kts | 69° |
| 2026-04-16 12:54 | -33.38036 | 149.12659 | 3109 ft | 13 kts | 57° |
| 2026-04-16 12:54 | -33.37991 | 149.12752 | 3110 ft | 12 kts | 79° |
| 2026-04-16 12:54 | -33.38058 | 149.12891 | 3110 ft | 22 kts | 126° |
| 2026-04-16 12:55 | -33.38174 | 149.13084 | 3110 ft | 29 kts | 126° |
| 2026-04-16 12:55 | -33.38298 | 149.13290 | 3110 ft | 21 kts | 125° |
| 2026-04-16 12:55 | -33.38327 | 149.13361 | 3110 ft | 9 kts | 156° |
| 2026-04-16 12:55 | -33.38336 | 149.13351 | 3110 ft | 0 kts | 304° |
| 2026-04-16 12:56 | -33.38334 | 149.13347 | 3110 ft | 6 kts | 304° |
| 2026-04-16 12:56 | -33.38136 | 149.13020 | 3110 ft | 95 kts | 306° |
| 2026-04-16 12:56 | -33.37603 | 149.12146 | 3158 ft | 152 kts | 305° |
| 2026-04-16 12:56 | -33.36939 | 149.11119 | 3593 ft | 169 kts | 305° |
| 2026-04-16 12:57 | -33.36091 | 149.10057 | 4139 ft | 184 kts | 324° |
| 2026-04-16 12:57 | -33.34874 | 149.09790 | 5040 ft | 190 kts | 6° |
| 2026-04-16 12:57 | -33.33722 | 149.10677 | 5599 ft | 214 kts | 47° |
| 2026-04-16 12:57 | -33.33240 | 149.12354 | 6328 ft | 223 kts | 90° |
| 2026-04-16 12:58 | -33.33703 | 149.14137 | 6898 ft | 231 kts | 116° |
| 2026-04-16 12:58 | -33.34250 | 149.15918 | 7760 ft | 230 kts | 112° |
| 2026-04-16 12:58 | -33.35027 | 149.17548 | 8498 ft | 231 kts | 130° |
| 2026-04-16 12:58 | -33.36198 | 149.18912 | 9081 ft | 239 kts | 143° |
| 2026-04-16 12:59 | -33.37339 | 149.20259 | 9932 ft | 235 kts | 123° |
| 2026-04-16 12:59 | -33.38243 | 149.21910 | 10600 ft | 238 kts | 124° |
| 2026-04-16 12:59 | -33.39052 | 149.23636 | 11267 ft | 241 kts | 125° |
| 2026-04-16 13:00 | -33.41790 | 149.25845 | 12410 ft | 252 kts | 154° |
| 2026-04-16 13:00 | -33.43313 | 149.26958 | 12987 ft | 262 kts | 152° |
| 2026-04-16 13:00 | -33.44833 | 149.28181 | 13708 ft | 265 kts | 149° |
| 2026-04-16 13:00 | -33.46368 | 149.29474 | 14327 ft | 273 kts | 149° |
| 2026-04-16 13:01 | -33.47911 | 149.30811 | 15044 ft | 278 kts | 149° |
| 2026-04-16 13:01 | -33.49442 | 149.32185 | 15800 ft | 281 kts | 148° |
| 2026-04-16 13:01 | -33.51002 | 149.33620 | 16579 ft | 283 kts | 148° |
| 2026-04-16 13:01 | -33.52587 | 149.35097 | 16960 ft | 303 kts | 147° |
| 2026-04-16 13:02 | -33.54271 | 149.36693 | 17094 ft | 317 kts | 146° |
| 2026-04-16 13:02 | -33.56049 | 149.38405 | 17133 ft | 332 kts | 146° |
| 2026-04-16 13:02 | -33.57865 | 149.40166 | 17149 ft | 344 kts | 146° |
| 2026-04-16 13:02 | -33.59764 | 149.42018 | 17159 ft | 355 kts | 145° |
| 2026-04-16 13:03 | -33.61710 | 149.43922 | 17160 ft | 363 kts | 144° |
| 2026-04-16 13:03 | -33.63672 | 149.45847 | 17155 ft | 369 kts | 145° |
| 2026-04-16 13:03 | -33.65667 | 149.47810 | 17152 ft | 374 kts | 144° |
| 2026-04-16 13:03 | -33.67708 | 149.49818 | 17153 ft | 378 kts | 144° |
| 2026-04-16 13:04 | -33.69738 | 149.51820 | 17154 ft | 381 kts | 144° |
| 2026-04-16 13:04 | -33.71812 | 149.53867 | 17141 ft | 384 kts | 144° |
| 2026-04-16 13:04 | -33.73824 | 149.55957 | 17143 ft | 387 kts | 140° |
| 2026-04-16 13:04 | -33.75726 | 149.58273 | 17148 ft | 388 kts | 137° |
| 2026-04-16 13:05 | -33.77593 | 149.60593 | 17144 ft | 389 kts | 137° |
| 2026-04-16 13:05 | -33.79491 | 149.62955 | 17142 ft | 389 kts | 137° |
| 2026-04-16 13:05 | -33.81365 | 149.65282 | 17139 ft | 389 kts | 136° |
| 2026-04-16 13:05 | -33.83261 | 149.67636 | 17138 ft | 389 kts | 137° |
| 2026-04-16 13:06 | -33.85127 | 149.69952 | 17130 ft | 389 kts | 136° |
| 2026-04-16 13:06 | -33.87020 | 149.72302 | 17130 ft | 389 kts | 137° |
| 2026-04-16 13:06 | -33.88910 | 149.74649 | 17133 ft | 389 kts | 137° |
| 2026-04-16 13:06 | -33.90771 | 149.76959 | 17132 ft | 389 kts | 137° |
| 2026-04-16 13:07 | -33.92653 | 149.79295 | 17133 ft | 389 kts | 137° |
| 2026-04-16 13:07 | -33.94540 | 149.81641 | 17140 ft | 389 kts | 137° |
| 2026-04-16 13:07 | -33.96419 | 149.83978 | 17131 ft | 389 kts | 137° |
| 2026-04-16 13:07 | -33.98306 | 149.86327 | 17129 ft | 388 kts | 137° |
| 2026-04-16 13:08 | -34.00180 | 149.88657 | 17121 ft | 388 kts | 137° |
| 2026-04-16 13:08 | -34.02079 | 149.91016 | 17124 ft | 387 kts | 137° |
| 2026-04-16 13:08 | -34.03938 | 149.93327 | 17128 ft | 387 kts | 137° |
| 2026-04-16 13:08 | -34.05807 | 149.95656 | 16840 ft | 387 kts | 137° |
| 2026-04-16 13:09 | -34.07686 | 149.97996 | 16505 ft | 387 kts | 136° |
| 2026-04-16 13:09 | -34.09556 | 150.00328 | 16171 ft | 386 kts | 136° |
| 2026-04-16 13:09 | -34.11413 | 150.02649 | 15811 ft | 380 kts | 136° |
| 2026-04-16 13:09 | -34.13224 | 150.04913 | 15475 ft | 375 kts | 136° |
| 2026-04-16 13:10 | -34.15030 | 150.07179 | 15120 ft | 370 kts | 136° |
| 2026-04-16 13:10 | -34.16526 | 150.09705 | 14574 ft | 370 kts | 114° |
| 2026-04-16 13:10 | -34.16967 | 150.12637 | 14319 ft | 357 kts | 86° |
| 2026-04-16 13:10 | -34.16565 | 150.15561 | 14053 ft | 350 kts | 75° |
| 2026-04-16 13:11 | -34.16016 | 150.18419 | 13741 ft | 348 kts | 74° |
| 2026-04-16 13:11 | -34.15451 | 150.21219 | 13429 ft | 346 kts | 73° |
| 2026-04-16 13:11 | -34.14869 | 150.24037 | 13099 ft | 345 kts | 73° |
| 2026-04-16 13:11 | -34.14282 | 150.26840 | 12783 ft | 343 kts | 73° |
| 2026-04-16 13:12 | -34.13700 | 150.29588 | 12476 ft | 341 kts | 73° |
| 2026-04-16 13:12 | -34.13108 | 150.32364 | 12186 ft | 338 kts | 73° |
| 2026-04-16 13:12 | -34.12525 | 150.35083 | 11884 ft | 337 kts | 73° |
| 2026-04-16 13:12 | -34.11933 | 150.37826 | 11572 ft | 335 kts | 73° |
| 2026-04-16 13:13 | -34.11352 | 150.40511 | 11262 ft | 333 kts | 73° |
| 2026-04-16 13:13 | -34.10767 | 150.43207 | 10965 ft | 331 kts | 73° |
| 2026-04-16 13:13 | -34.10184 | 150.45879 | 10666 ft | 329 kts | 73° |
| 2026-04-16 13:13 | -34.09601 | 150.48555 | 10362 ft | 327 kts | 73° |
| 2026-04-16 13:14 | -34.09027 | 150.51186 | 10071 ft | 326 kts | 73° |
| 2026-04-16 13:14 | -34.08454 | 150.53815 | 9781 ft | 324 kts | 73° |
| 2026-04-16 13:14 | -34.07888 | 150.56447 | 9496 ft | 322 kts | 73° |
| 2026-04-16 13:14 | -34.07330 | 150.59052 | 9194 ft | 320 kts | 74° |
| 2026-04-16 13:15 | -34.06778 | 150.61629 | 8902 ft | 318 kts | 74° |
| 2026-04-16 13:15 | -34.06238 | 150.64137 | 8601 ft | 301 kts | 73° |
| 2026-04-16 13:15 | -34.05721 | 150.66524 | 8318 ft | 285 kts | 73° |
| 2026-04-16 13:15 | -34.05233 | 150.68779 | 8072 ft | 272 kts | 73° |
| 2026-04-16 13:16 | -34.04765 | 150.70941 | 7838 ft | 261 kts | 73° |
| 2026-04-16 13:16 | -34.04321 | 150.72996 | 7602 ft | 251 kts | 72° |
| 2026-04-16 13:16 | -34.03882 | 150.75027 | 7382 ft | 245 kts | 73° |
| 2026-04-16 13:16 | -34.03447 | 150.77052 | 7177 ft | 262 kts | 73° |
| 2026-04-16 13:17 | -34.02972 | 150.79246 | 6973 ft | 272 kts | 73° |
| 2026-04-16 13:17 | -34.02470 | 150.81415 | 6886 ft | 268 kts | 72° |
| 2026-04-16 13:17 | -34.01974 | 150.83513 | 6777 ft | 252 kts | 72° |
| 2026-04-16 13:17 | -34.01507 | 150.85489 | 6687 ft | 236 kts | 72° |
| 2026-04-16 13:18 | -34.01061 | 150.87380 | 6623 ft | 236 kts | 72° |
| 2026-04-16 13:18 | -34.00614 | 150.89290 | 6548 ft | 237 kts | 72° |
| 2026-04-16 13:18 | -34.00169 | 150.91183 | 6464 ft | 238 kts | 72° |
| 2026-04-16 13:18 | -33.99711 | 150.93127 | 6375 ft | 238 kts | 72° |
| 2026-04-16 13:19 | -33.99265 | 150.95041 | 6288 ft | 239 kts | 73° |
| 2026-04-16 13:19 | -33.99189 | 150.97026 | 6197 ft | 240 kts | 102° |
| 2026-04-16 13:19 | -33.99936 | 150.98789 | 6129 ft | 236 kts | 134° |
| 2026-04-16 13:19 | -34.01270 | 150.99820 | 6120 ft | 226 kts | 163° |
| 2026-04-16 13:20 | -34.02791 | 151.00339 | 5995 ft | 228 kts | 168° |
| 2026-04-16 13:20 | -34.04351 | 151.00844 | 5691 ft | 240 kts | 167° |
| 2026-04-16 13:20 | -34.06023 | 151.01376 | 5367 ft | 249 kts | 168° |
| 2026-04-16 13:20 | -34.07692 | 151.01924 | 5039 ft | 246 kts | 167° |
| 2026-04-16 13:21 | -34.09300 | 151.02460 | 4727 ft | 235 kts | 168° |
| 2026-04-16 13:21 | -34.10840 | 151.02988 | 4453 ft | 224 kts | 167° |
| 2026-04-16 13:21 | -34.12358 | 151.03507 | 4203 ft | 232 kts | 168° |
| 2026-04-16 13:21 | -34.13943 | 151.04039 | 3981 ft | 245 kts | 167° |
| 2026-04-16 13:22 | -34.15620 | 151.04599 | 3755 ft | 254 kts | 168° |
| 2026-04-16 13:22 | -34.17325 | 151.05167 | 3511 ft | 250 kts | 167° |
| 2026-04-16 13:22 | -34.18985 | 151.05737 | 3252 ft | 243 kts | 166° |
| 2026-04-16 13:22 | -34.20418 | 151.06735 | 3084 ft | 238 kts | 137° |
| 2026-04-16 13:23 | -34.21243 | 151.08510 | 3050 ft | 247 kts | 105° |
| 2026-04-16 13:23 | -34.21267 | 151.10570 | 3039 ft | 249 kts | 79° |
| 2026-04-16 13:23 | -34.20937 | 151.12640 | 3025 ft | 253 kts | 77° |
| 2026-04-16 13:23 | -34.20600 | 151.14746 | 3023 ft | 256 kts | 78° |
| 2026-04-16 13:24 | -34.20257 | 151.16869 | 3016 ft | 258 kts | 78° |
| 2026-04-16 13:24 | -34.19916 | 151.18994 | 3008 ft | 260 kts | 77° |
| 2026-04-16 13:24 | -34.19527 | 151.21140 | 3016 ft | 261 kts | 77° |
| 2026-04-16 13:24 | -34.19083 | 151.23267 | 2988 ft | 260 kts | 63° |
| 2026-04-16 13:25 | -34.17907 | 151.24863 | 3001 ft | 251 kts | 27° |
| 2026-04-16 13:25 | -34.16288 | 151.25297 | 3012 ft | 240 kts | 349° |
| 2026-04-16 13:25 | -34.14836 | 151.24435 | 3010 ft | 230 kts | 311° |
| 2026-04-16 13:25 | -34.13899 | 151.22893 | 3010 ft | 230 kts | 307° |
| 2026-04-16 13:26 | -34.12521 | 151.21884 | 3007 ft | 239 kts | 344° |
| 2026-04-16 13:26 | -34.10854 | 151.21755 | 2971 ft | 243 kts | 351° |
| 2026-04-16 13:26 | -34.09193 | 151.21343 | 2599 ft | 239 kts | 342° |
| 2026-04-16 13:26 | -34.07610 | 151.20927 | 2314 ft | 228 kts | 346° |
| 2026-04-16 13:27 | -34.06075 | 151.20564 | 1957 ft | 221 kts | 344° |
| 2026-04-16 13:27 | -34.04589 | 151.20169 | 1630 ft | 212 kts | 344° |
| 2026-04-16 13:27 | -34.03174 | 151.19806 | 1344 ft | 203 kts | 345° |
| 2026-04-16 13:27 | -34.01863 | 151.19467 | 1113 ft | 184 kts | 345° |
| 2026-04-16 13:28 | -34.00672 | 151.19162 | 874 ft | 164 kts | 345° |
| 2026-04-16 13:28 | -33.99622 | 151.18890 | 647 ft | 146 kts | 345° |
| 2026-04-16 13:28 | -33.98633 | 151.18637 | 479 ft | 144 kts | 346° |
| 2026-04-16 13:28 | -33.97665 | 151.18381 | 293 ft | 141 kts | 345° |
| 2026-04-16 13:29 | -33.96738 | 151.18144 | 107 ft | 133 kts | 346° |
| 2026-04-16 13:29 | -33.95877 | 151.17923 | 18 ft | 117 kts | 347° |
| 2026-04-16 13:29 | -33.95160 | 151.17735 | 20 ft | 82 kts | 347° |
| 2026-04-16 13:29 | -33.94708 | 151.17642 | 25 ft | 50 kts | 1° |
| 2026-04-16 13:30 | -33.94458 | 151.17708 | 25 ft | 24 kts | 20° |
| 2026-04-16 13:30 | -33.94380 | 151.17737 | 22 ft | 0 kts | 11° |
| 2026-04-16 13:30 | -33.94376 | 151.17738 | 22 ft | 4 kts | 8° |
| 2026-04-16 13:30 | -33.94312 | 151.17731 | 21 ft | 13 kts | 346° |
| 2026-04-16 13:31 | -33.94196 | 151.17696 | 18 ft | 18 kts | 345° |
| 2026-04-16 13:31 | -33.94070 | 151.17654 | 13 ft | 19 kts | 347° |
| 2026-04-16 13:31 | -33.93880 | 151.17607 | 10 ft | 30 kts | 347° |
| 2026-04-16 13:31 | -33.93700 | 151.17560 | 10 ft | 22 kts | 348° |
| 2026-04-16 13:32 | -33.93562 | 151.17525 | 10 ft | 21 kts | 348° |
| 2026-04-16 13:32 | -33.93413 | 151.17506 | 14 ft | 13 kts | 13° |
| 2026-04-16 13:32 | -33.93368 | 151.17560 | 15 ft | 12 kts | 77° |
| 2026-04-16 13:32 | -33.93352 | 151.17690 | 17 ft | 7 kts | 86° |
| 2026-04-16 13:33 | -33.93339 | 151.17728 | 18 ft | 3 kts | 48° |
| 2026-04-16 13:33 | -33.93334 | 151.17734 | 18 ft | 0 kts | 45° |
| 2026-04-16 13:33 | -33.93331 | 151.17743 | 18 ft | 4 kts | 66° |
| 2026-04-16 13:33 | -33.93327 | 151.17752 | 18 ft | 0 kts | 68° |